sensor_id;sensor_type;location;lat;lon;timestamp;P1;durP1;ratioP1;P2;durP2;ratioP2
23300;SDS011;11819;51.394;12.340;2023-05-07T00:01:41;19.23;;;13.63;;
23300;SDS011;11819;51.394;12.340;2023-05-07T00:04:07;19.30;;;13.45;;
23300;SDS011;11819;51.394;12.340;2023-05-07T00:06:32;18.35;;;13.13;;
23300;SDS011;11819;51.394;12.340;2023-05-07T00:08:58;19.05;;;13.52;;
23300;SDS011;11819;51.394;12.340;2023-05-07T00:11:24;17.63;;;12.95;;
23300;SDS011;11819;51.394;12.340;2023-05-07T00:13:52;17.42;;;12.27;;
23300;SDS011;11819;51.394;12.340;2023-05-07T00:16:17;16.95;;;11.98;;
23300;SDS011;11819;51.394;12.340;2023-05-07T00:18:43;16.70;;;12.02;;
23300;SDS011;11819;51.394;12.340;2023-05-07T00:21:10;17.60;;;12.55;;
23300;SDS011;11819;51.394;12.340;2023-05-07T00:23:36;18.55;;;12.02;;
23300;SDS011;11819;51.394;12.340;2023-05-07T00:26:02;18.38;;;12.30;;
23300;SDS011;11819;51.394;12.340;2023-05-07T00:28:29;16.35;;;11.57;;
23300;SDS011;11819;51.394;12.340;2023-05-07T00:30:54;16.60;;;11.77;;
23300;SDS011;11819;51.394;12.340;2023-05-07T00:33:20;18.33;;;12.18;;
23300;SDS011;11819;51.394;12.340;2023-05-07T00:35:47;16.40;;;11.52;;
23300;SDS011;11819;51.394;12.340;2023-05-07T00:38:13;17.83;;;11.65;;
23300;SDS011;11819;51.394;12.340;2023-05-07T00:40:40;18.92;;;11.70;;
23300;SDS011;11819;51.394;12.340;2023-05-07T00:43:05;18.73;;;12.57;;
23300;SDS011;11819;51.394;12.340;2023-05-07T00:45:32;17.70;;;12.23;;
23300;SDS011;11819;51.394;12.340;2023-05-07T00:48:01;20.27;;;12.32;;
23300;SDS011;11819;51.394;12.340;2023-05-07T00:50:28;17.02;;;12.13;;
23300;SDS011;11819;51.394;12.340;2023-05-07T00:52:55;17.65;;;12.00;;
23300;SDS011;11819;51.394;12.340;2023-05-07T00:55:21;16.77;;;11.75;;
23300;SDS011;11819;51.394;12.340;2023-05-07T00:57:48;19.08;;;12.80;;
23300;SDS011;11819;51.394;12.340;2023-05-07T01:00:15;18.58;;;12.38;;
23300;SDS011;11819;51.394;12.340;2023-05-07T01:02:41;18.27;;;13.07;;
23300;SDS011;11819;51.394;12.340;2023-05-07T01:05:08;20.77;;;13.80;;
23300;SDS011;11819;51.394;12.340;2023-05-07T01:07:35;19.50;;;13.80;;
23300;SDS011;11819;51.394;12.340;2023-05-07T01:10:03;20.55;;;14.13;;
23300;SDS011;11819;51.394;12.340;2023-05-07T01:12:30;20.80;;;14.00;;
23300;SDS011;11819;51.394;12.340;2023-05-07T01:14:56;18.58;;;13.50;;
23300;SDS011;11819;51.394;12.340;2023-05-07T01:17:23;20.65;;;15.13;;
23300;SDS011;11819;51.394;12.340;2023-05-07T01:19:50;19.75;;;14.32;;
23300;SDS011;11819;51.394;12.340;2023-05-07T01:22:39;20.80;;;14.38;;
23300;SDS011;11819;51.394;12.340;2023-05-07T01:25:06;22.92;;;15.30;;
23300;SDS011;11819;51.394;12.340;2023-05-07T01:27:35;21.83;;;15.27;;
23300;SDS011;11819;51.394;12.340;2023-05-07T01:30:05;20.70;;;15.07;;
23300;SDS011;11819;51.394;12.340;2023-05-07T01:32:33;21.70;;;15.20;;
23300;SDS011;11819;51.394;12.340;2023-05-07T01:35:11;21.08;;;15.65;;
23300;SDS011;11819;51.394;12.340;2023-05-07T01:37:40;22.10;;;15.90;;
23300;SDS011;11819;51.394;12.340;2023-05-07T01:40:06;22.02;;;15.57;;
23300;SDS011;11819;51.394;12.340;2023-05-07T01:42:33;21.52;;;15.60;;
23300;SDS011;11819;51.394;12.340;2023-05-07T01:44:59;24.30;;;16.20;;
23300;SDS011;11819;51.394;12.340;2023-05-07T01:47:25;22.27;;;14.90;;
23300;SDS011;11819;51.394;12.340;2023-05-07T01:49:51;21.83;;;15.25;;
23300;SDS011;11819;51.394;12.340;2023-05-07T01:52:17;22.80;;;15.55;;
23300;SDS011;11819;51.394;12.340;2023-05-07T01:54:43;22.73;;;15.10;;
23300;SDS011;11819;51.394;12.340;2023-05-07T01:57:09;24.50;;;16.58;;
23300;SDS011;11819;51.394;12.340;2023-05-07T01:59:35;22.67;;;15.85;;
23300;SDS011;11819;51.394;12.340;2023-05-07T02:02:01;23.60;;;15.95;;
23300;SDS011;11819;51.394;12.340;2023-05-07T02:04:27;23.88;;;16.58;;
23300;SDS011;11819;51.394;12.340;2023-05-07T02:06:53;26.20;;;17.35;;
23300;SDS011;11819;51.394;12.340;2023-05-07T02:09:19;25.13;;;16.33;;
23300;SDS011;11819;51.394;12.340;2023-05-07T02:11:47;26.02;;;17.75;;
23300;SDS011;11819;51.394;12.340;2023-05-07T02:14:12;24.23;;;16.75;;
23300;SDS011;11819;51.394;12.340;2023-05-07T02:16:38;25.73;;;17.90;;
23300;SDS011;11819;51.394;12.340;2023-05-07T02:19:04;22.25;;;16.17;;
23300;SDS011;11819;51.394;12.340;2023-05-07T02:21:30;25.48;;;17.63;;
23300;SDS011;11819;51.394;12.340;2023-05-07T02:23:58;26.42;;;17.50;;
23300;SDS011;11819;51.394;12.340;2023-05-07T02:26:25;25.77;;;17.75;;
23300;SDS011;11819;51.394;12.340;2023-05-07T02:28:51;27.23;;;17.73;;
23300;SDS011;11819;51.394;12.340;2023-05-07T02:31:17;28.08;;;18.65;;
23300;SDS011;11819;51.394;12.340;2023-05-07T02:33:42;25.40;;;16.40;;
23300;SDS011;11819;51.394;12.340;2023-05-07T02:36:09;27.33;;;18.17;;
23300;SDS011;11819;51.394;12.340;2023-05-07T02:38:42;25.05;;;17.50;;
23300;SDS011;11819;51.394;12.340;2023-05-07T02:41:09;27.63;;;18.17;;
23300;SDS011;11819;51.394;12.340;2023-05-07T02:43:36;24.25;;;16.17;;
23300;SDS011;11819;51.394;12.340;2023-05-07T02:46:02;23.23;;;17.20;;
23300;SDS011;11819;51.394;12.340;2023-05-07T02:48:35;27.13;;;18.73;;
23300;SDS011;11819;51.394;12.340;2023-05-07T02:51:02;25.73;;;17.10;;
23300;SDS011;11819;51.394;12.340;2023-05-07T02:53:31;24.27;;;17.75;;
23300;SDS011;11819;51.394;12.340;2023-05-07T02:56:00;23.50;;;17.10;;
23300;SDS011;11819;51.394;12.340;2023-05-07T02:58:27;24.50;;;16.73;;
23300;SDS011;11819;51.394;12.340;2023-05-07T03:00:53;23.15;;;17.60;;
23300;SDS011;11819;51.394;12.340;2023-05-07T03:03:28;25.40;;;18.52;;
23300;SDS011;11819;51.394;12.340;2023-05-07T03:05:53;24.17;;;17.85;;
23300;SDS011;11819;51.394;12.340;2023-05-07T03:08:19;28.50;;;18.30;;
23300;SDS011;11819;51.394;12.340;2023-05-07T03:10:45;26.38;;;18.17;;
23300;SDS011;11819;51.394;12.340;2023-05-07T03:13:12;23.92;;;16.85;;
23300;SDS011;11819;51.394;12.340;2023-05-07T03:15:37;26.20;;;18.67;;
23300;SDS011;11819;51.394;12.340;2023-05-07T03:18:03;25.60;;;18.83;;
23300;SDS011;11819;51.394;12.340;2023-05-07T03:20:28;26.45;;;18.50;;
23300;SDS011;11819;51.394;12.340;2023-05-07T03:22:55;24.98;;;18.02;;
23300;SDS011;11819;51.394;12.340;2023-05-07T03:25:21;24.67;;;17.90;;
23300;SDS011;11819;51.394;12.340;2023-05-07T03:27:46;23.77;;;17.75;;
23300;SDS011;11819;51.394;12.340;2023-05-07T03:30:12;24.52;;;17.20;;
23300;SDS011;11819;51.394;12.340;2023-05-07T03:32:39;24.58;;;18.08;;
23300;SDS011;11819;51.394;12.340;2023-05-07T03:35:08;25.48;;;17.67;;
23300;SDS011;11819;51.394;12.340;2023-05-07T03:37:35;22.67;;;16.58;;
23300;SDS011;11819;51.394;12.340;2023-05-07T03:40:01;25.10;;;16.73;;
23300;SDS011;11819;51.394;12.340;2023-05-07T03:42:28;23.90;;;17.13;;
23300;SDS011;11819;51.394;12.340;2023-05-07T03:44:54;24.35;;;17.52;;
23300;SDS011;11819;51.394;12.340;2023-05-07T03:47:20;25.83;;;16.38;;
23300;SDS011;11819;51.394;12.340;2023-05-07T03:49:46;26.90;;;17.52;;
23300;SDS011;11819;51.394;12.340;2023-05-07T03:52:13;24.10;;;16.48;;
23300;SDS011;11819;51.394;12.340;2023-05-07T03:54:39;27.02;;;17.40;;
23300;SDS011;11819;51.394;12.340;2023-05-07T03:57:05;23.67;;;16.70;;
23300;SDS011;11819;51.394;12.340;2023-05-07T03:59:30;27.52;;;18.35;;
23300;SDS011;11819;51.394;12.340;2023-05-07T04:01:57;23.70;;;16.38;;
23300;SDS011;11819;51.394;12.340;2023-05-07T04:04:29;25.90;;;16.98;;
23300;SDS011;11819;51.394;12.340;2023-05-07T04:07:00;22.92;;;15.77;;
23300;SDS011;11819;51.394;12.340;2023-05-07T04:09:26;25.05;;;16.75;;
23300;SDS011;11819;51.394;12.340;2023-05-07T04:11:52;25.83;;;17.58;;
23300;SDS011;11819;51.394;12.340;2023-05-07T04:14:18;26.48;;;16.80;;
23300;SDS011;11819;51.394;12.340;2023-05-07T04:16:44;26.73;;;17.42;;
23300;SDS011;11819;51.394;12.340;2023-05-07T04:19:10;27.50;;;17.17;;
23300;SDS011;11819;51.394;12.340;2023-05-07T04:21:38;27.40;;;16.88;;
23300;SDS011;11819;51.394;12.340;2023-05-07T04:24:04;27.63;;;17.33;;
23300;SDS011;11819;51.394;12.340;2023-05-07T04:26:30;26.27;;;18.08;;
23300;SDS011;11819;51.394;12.340;2023-05-07T04:28:56;26.08;;;17.13;;
23300;SDS011;11819;51.394;12.340;2023-05-07T04:31:25;25.17;;;17.48;;
23300;SDS011;11819;51.394;12.340;2023-05-07T04:33:53;26.20;;;17.50;;
23300;SDS011;11819;51.394;12.340;2023-05-07T04:36:19;25.17;;;17.27;;
23300;SDS011;11819;51.394;12.340;2023-05-07T04:38:50;23.15;;;16.60;;
23300;SDS011;11819;51.394;12.340;2023-05-07T04:41:17;24.88;;;17.08;;
23300;SDS011;11819;51.394;12.340;2023-05-07T04:43:43;21.92;;;17.05;;
23300;SDS011;11819;51.394;12.340;2023-05-07T04:46:10;24.25;;;16.52;;
23300;SDS011;11819;51.394;12.340;2023-05-07T04:48:36;25.75;;;16.73;;
23300;SDS011;11819;51.394;12.340;2023-05-07T04:51:04;23.45;;;17.05;;
23300;SDS011;11819;51.394;12.340;2023-05-07T04:53:29;25.58;;;16.95;;
23300;SDS011;11819;51.394;12.340;2023-05-07T04:55:56;22.27;;;15.30;;
23300;SDS011;11819;51.394;12.340;2023-05-07T04:58:23;24.63;;;16.45;;
23300;SDS011;11819;51.394;12.340;2023-05-07T05:00:49;23.90;;;16.33;;
23300;SDS011;11819;51.394;12.340;2023-05-07T05:03:15;22.08;;;15.68;;
23300;SDS011;11819;51.394;12.340;2023-05-07T05:05:41;21.85;;;15.70;;
23300;SDS011;11819;51.394;12.340;2023-05-07T05:08:08;21.75;;;15.02;;
23300;SDS011;11819;51.394;12.340;2023-05-07T05:10:36;21.10;;;15.38;;
23300;SDS011;11819;51.394;12.340;2023-05-07T05:13:02;22.75;;;16.25;;
23300;SDS011;11819;51.394;12.340;2023-05-07T05:15:28;24.33;;;15.63;;
23300;SDS011;11819;51.394;12.340;2023-05-07T05:17:54;26.55;;;16.23;;
23300;SDS011;11819;51.394;12.340;2023-05-07T05:20:20;23.85;;;14.95;;
23300;SDS011;11819;51.394;12.340;2023-05-07T05:22:47;23.63;;;16.25;;
23300;SDS011;11819;51.394;12.340;2023-05-07T05:25:12;20.75;;;15.30;;
23300;SDS011;11819;51.394;12.340;2023-05-07T05:27:38;24.08;;;14.82;;
23300;SDS011;11819;51.394;12.340;2023-05-07T05:30:04;23.10;;;15.52;;
23300;SDS011;11819;51.394;12.340;2023-05-07T05:32:31;21.25;;;14.40;;
23300;SDS011;11819;51.394;12.340;2023-05-07T05:34:58;19.95;;;13.93;;
23300;SDS011;11819;51.394;12.340;2023-05-07T05:37:25;20.67;;;14.13;;
23300;SDS011;11819;51.394;12.340;2023-05-07T05:39:52;22.00;;;14.65;;
23300;SDS011;11819;51.394;12.340;2023-05-07T05:42:21;19.40;;;13.95;;
23300;SDS011;11819;51.394;12.340;2023-05-07T05:44:46;20.52;;;13.73;;
23300;SDS011;11819;51.394;12.340;2023-05-07T05:47:13;18.95;;;14.88;;
23300;SDS011;11819;51.394;12.340;2023-05-07T05:49:39;20.02;;;14.18;;
23300;SDS011;11819;51.394;12.340;2023-05-07T05:52:06;21.23;;;14.82;;
23300;SDS011;11819;51.394;12.340;2023-05-07T05:54:32;19.88;;;14.43;;
23300;SDS011;11819;51.394;12.340;2023-05-07T05:56:58;19.42;;;14.57;;
23300;SDS011;11819;51.394;12.340;2023-05-07T05:59:24;23.23;;;14.52;;
23300;SDS011;11819;51.394;12.340;2023-05-07T06:01:50;20.80;;;14.82;;
23300;SDS011;11819;51.394;12.340;2023-05-07T06:04:16;20.50;;;14.38;;
23300;SDS011;11819;51.394;12.340;2023-05-07T06:06:42;19.02;;;13.68;;
23300;SDS011;11819;51.394;12.340;2023-05-07T06:09:07;19.70;;;14.23;;
23300;SDS011;11819;51.394;12.340;2023-05-07T06:11:38;21.17;;;14.10;;
23300;SDS011;11819;51.394;12.340;2023-05-07T06:14:06;18.55;;;13.52;;
23300;SDS011;11819;51.394;12.340;2023-05-07T06:16:33;17.92;;;13.25;;
23300;SDS011;11819;51.394;12.340;2023-05-07T06:18:59;18.90;;;13.63;;
23300;SDS011;11819;51.394;12.340;2023-05-07T06:21:27;20.88;;;14.43;;
23300;SDS011;11819;51.394;12.340;2023-05-07T06:23:53;20.20;;;14.23;;
23300;SDS011;11819;51.394;12.340;2023-05-07T06:26:20;23.15;;;15.23;;
23300;SDS011;11819;51.394;12.340;2023-05-07T06:28:46;18.23;;;13.50;;
23300;SDS011;11819;51.394;12.340;2023-05-07T06:31:17;19.98;;;13.48;;
23300;SDS011;11819;51.394;12.340;2023-05-07T06:33:58;19.35;;;14.13;;
23300;SDS011;11819;51.394;12.340;2023-05-07T06:36:30;18.75;;;13.82;;
23300;SDS011;11819;51.394;12.340;2023-05-07T06:38:59;19.15;;;13.63;;
23300;SDS011;11819;51.394;12.340;2023-05-07T06:41:24;20.42;;;14.60;;
23300;SDS011;11819;51.394;12.340;2023-05-07T06:43:50;20.27;;;14.60;;
23300;SDS011;11819;51.394;12.340;2023-05-07T06:46:28;19.38;;;13.98;;
23300;SDS011;11819;51.394;12.340;2023-05-07T06:48:54;19.42;;;13.68;;
23300;SDS011;11819;51.394;12.340;2023-05-07T06:51:21;19.75;;;14.07;;
23300;SDS011;11819;51.394;12.340;2023-05-07T06:53:48;19.20;;;13.18;;
23300;SDS011;11819;51.394;12.340;2023-05-07T06:56:14;18.33;;;13.68;;
23300;SDS011;11819;51.394;12.340;2023-05-07T06:58:39;21.02;;;14.13;;
23300;SDS011;11819;51.394;12.340;2023-05-07T07:01:06;19.45;;;13.48;;
23300;SDS011;11819;51.394;12.340;2023-05-07T07:03:33;19.67;;;13.07;;
23300;SDS011;11819;51.394;12.340;2023-05-07T07:05:59;17.67;;;13.00;;
23300;SDS011;11819;51.394;12.340;2023-05-07T07:08:28;20.42;;;13.20;;
23300;SDS011;11819;51.394;12.340;2023-05-07T07:10:53;18.73;;;12.73;;
23300;SDS011;11819;51.394;12.340;2023-05-07T07:13:21;17.70;;;12.82;;
23300;SDS011;11819;51.394;12.340;2023-05-07T07:15:48;15.45;;;11.25;;
23300;SDS011;11819;51.394;12.340;2023-05-07T07:18:16;15.50;;;11.95;;
23300;SDS011;11819;51.394;12.340;2023-05-07T07:20:42;17.27;;;11.02;;
23300;SDS011;11819;51.394;12.340;2023-05-07T07:23:09;15.98;;;12.00;;
23300;SDS011;11819;51.394;12.340;2023-05-07T07:25:35;18.17;;;12.10;;
23300;SDS011;11819;51.394;12.340;2023-05-07T07:28:01;15.95;;;10.95;;
23300;SDS011;11819;51.394;12.340;2023-05-07T07:30:27;14.35;;;11.00;;
23300;SDS011;11819;51.394;12.340;2023-05-07T07:32:53;13.77;;;10.40;;
23300;SDS011;11819;51.394;12.340;2023-05-07T07:35:20;13.75;;;10.65;;
23300;SDS011;11819;51.394;12.340;2023-05-07T07:37:47;14.82;;;10.98;;
23300;SDS011;11819;51.394;12.340;2023-05-07T07:40:15;14.82;;;11.35;;
23300;SDS011;11819;51.394;12.340;2023-05-07T07:42:42;16.40;;;12.63;;
23300;SDS011;11819;51.394;12.340;2023-05-07T07:45:08;16.20;;;12.35;;
23300;SDS011;11819;51.394;12.340;2023-05-07T07:47:39;15.90;;;11.38;;
23300;SDS011;11819;51.394;12.340;2023-05-07T07:50:06;14.50;;;11.35;;
23300;SDS011;11819;51.394;12.340;2023-05-07T07:52:32;13.70;;;11.23;;
23300;SDS011;11819;51.394;12.340;2023-05-07T07:54:59;13.98;;;10.70;;
23300;SDS011;11819;51.394;12.340;2023-05-07T07:57:25;12.38;;;10.40;;
23300;SDS011;11819;51.394;12.340;2023-05-07T07:59:51;11.13;;;9.23;;
23300;SDS011;11819;51.394;12.340;2023-05-07T08:02:18;11.80;;;9.82;;
23300;SDS011;11819;51.394;12.340;2023-05-07T08:04:44;13.10;;;10.00;;
23300;SDS011;11819;51.394;12.340;2023-05-07T08:07:10;13.57;;;9.82;;
23300;SDS011;11819;51.394;12.340;2023-05-07T08:09:40;12.05;;;9.80;;
23300;SDS011;11819;51.394;12.340;2023-05-07T08:12:06;12.07;;;9.57;;
23300;SDS011;11819;51.394;12.340;2023-05-07T08:14:33;12.02;;;9.52;;
23300;SDS011;11819;51.394;12.340;2023-05-07T08:17:01;12.23;;;8.75;;
23300;SDS011;11819;51.394;12.340;2023-05-07T08:19:27;12.30;;;9.20;;
23300;SDS011;11819;51.394;12.340;2023-05-07T08:21:54;11.70;;;9.80;;
23300;SDS011;11819;51.394;12.340;2023-05-07T08:24:21;12.23;;;8.98;;
23300;SDS011;11819;51.394;12.340;2023-05-07T08:26:48;12.18;;;9.43;;
23300;SDS011;11819;51.394;12.340;2023-05-07T08:29:15;11.75;;;8.50;;
23300;SDS011;11819;51.394;12.340;2023-05-07T08:31:42;11.25;;;9.15;;
23300;SDS011;11819;51.394;12.340;2023-05-07T08:34:07;11.38;;;8.75;;
23300;SDS011;11819;51.394;12.340;2023-05-07T08:36:36;11.57;;;8.75;;
23300;SDS011;11819;51.394;12.340;2023-05-07T08:39:02;11.20;;;8.32;;
23300;SDS011;11819;51.394;12.340;2023-05-07T08:41:27;10.68;;;8.13;;
23300;SDS011;11819;51.394;12.340;2023-05-07T08:43:54;10.65;;;8.43;;
23300;SDS011;11819;51.394;12.340;2023-05-07T08:46:23;11.23;;;8.77;;
23300;SDS011;11819;51.394;12.340;2023-05-07T08:48:54;12.45;;;8.30;;
23300;SDS011;11819;51.394;12.340;2023-05-07T08:51:20;10.35;;;8.38;;
23300;SDS011;11819;51.394;12.340;2023-05-07T08:53:47;11.27;;;8.95;;
23300;SDS011;11819;51.394;12.340;2023-05-07T08:56:21;10.75;;;9.00;;
23300;SDS011;11819;51.394;12.340;2023-05-07T08:58:47;13.07;;;9.27;;
23300;SDS011;11819;51.394;12.340;2023-05-07T09:01:13;10.95;;;9.02;;
23300;SDS011;11819;51.394;12.340;2023-05-07T09:03:41;11.85;;;9.50;;
23300;SDS011;11819;51.394;12.340;2023-05-07T09:06:12;13.05;;;10.23;;
23300;SDS011;11819;51.394;12.340;2023-05-07T09:08:38;12.05;;;9.80;;
23300;SDS011;11819;51.394;12.340;2023-05-07T09:11:06;11.27;;;9.68;;
23300;SDS011;11819;51.394;12.340;2023-05-07T09:13:32;12.88;;;10.05;;
23300;SDS011;11819;51.394;12.340;2023-05-07T09:16:09;12.57;;;10.15;;
23300;SDS011;11819;51.394;12.340;2023-05-07T09:18:40;13.00;;;9.85;;
23300;SDS011;11819;51.394;12.340;2023-05-07T09:21:15;13.50;;;10.43;;
23300;SDS011;11819;51.394;12.340;2023-05-07T09:23:43;14.88;;;12.43;;
23300;SDS011;11819;51.394;12.340;2023-05-07T09:26:09;12.93;;;10.57;;
23300;SDS011;11819;51.394;12.340;2023-05-07T09:28:38;12.23;;;10.43;;
23300;SDS011;11819;51.394;12.340;2023-05-07T09:31:08;14.15;;;11.63;;
23300;SDS011;11819;51.394;12.340;2023-05-07T09:33:35;15.35;;;11.30;;
23300;SDS011;11819;51.394;12.340;2023-05-07T09:36:06;13.82;;;11.38;;
23300;SDS011;11819;51.394;12.340;2023-05-07T09:38:37;16.17;;;12.00;;
23300;SDS011;11819;51.394;12.340;2023-05-07T09:41:07;16.80;;;13.32;;
23300;SDS011;11819;51.394;12.340;2023-05-07T09:43:42;15.38;;;12.50;;
23300;SDS011;11819;51.394;12.340;2023-05-07T09:46:14;16.33;;;13.32;;
23300;SDS011;11819;51.394;12.340;2023-05-07T09:48:48;23.88;;;19.33;;
23300;SDS011;11819;51.394;12.340;2023-05-07T09:51:16;15.15;;;12.70;;
23300;SDS011;11819;51.394;12.340;2023-05-07T09:53:47;13.18;;;11.55;;
23300;SDS011;11819;51.394;12.340;2023-05-07T09:56:16;13.70;;;11.40;;
23300;SDS011;11819;51.394;12.340;2023-05-07T09:58:43;13.88;;;11.32;;
23300;SDS011;11819;51.394;12.340;2023-05-07T10:01:10;13.35;;;10.70;;
23300;SDS011;11819;51.394;12.340;2023-05-07T10:03:42;15.45;;;10.63;;
23300;SDS011;11819;51.394;12.340;2023-05-07T10:06:10;12.50;;;10.65;;
23300;SDS011;11819;51.394;12.340;2023-05-07T10:08:37;13.43;;;10.50;;
23300;SDS011;11819;51.394;12.340;2023-05-07T10:11:05;12.88;;;10.07;;
23300;SDS011;11819;51.394;12.340;2023-05-07T10:13:34;13.02;;;9.52;;
23300;SDS011;11819;51.394;12.340;2023-05-07T10:16:01;13.18;;;9.60;;
23300;SDS011;11819;51.394;12.340;2023-05-07T10:18:37;11.48;;;9.63;;
23300;SDS011;11819;51.394;12.340;2023-05-07T10:21:18;11.82;;;9.38;;
23300;SDS011;11819;51.394;12.340;2023-05-07T10:23:51;13.55;;;9.55;;
23300;SDS011;11819;51.394;12.340;2023-05-07T10:26:24;12.27;;;9.50;;
23300;SDS011;11819;51.394;12.340;2023-05-07T10:29:03;13.38;;;10.20;;
23300;SDS011;11819;51.394;12.340;2023-05-07T10:34:15;13.00;;;10.02;;
23300;SDS011;11819;51.394;12.340;2023-05-07T10:36:44;11.13;;;9.40;;
23300;SDS011;11819;51.394;12.340;2023-05-07T10:39:11;12.27;;;9.93;;
23300;SDS011;11819;51.394;12.340;2023-05-07T10:41:39;12.02;;;8.95;;
23300;SDS011;11819;51.394;12.340;2023-05-07T10:44:05;11.20;;;8.23;;
23300;SDS011;11819;51.394;12.340;2023-05-07T10:46:33;10.43;;;8.30;;
23300;SDS011;11819;51.394;12.340;2023-05-07T10:49:17;11.00;;;9.23;;
23300;SDS011;11819;51.394;12.340;2023-05-07T10:54:38;13.77;;;11.27;;
23300;SDS011;11819;51.394;12.340;2023-05-07T10:59:57;15.13;;;12.60;;
23300;SDS011;11819;51.394;12.340;2023-05-07T11:03:13;14.10;;;12.30;;
23300;SDS011;11819;51.394;12.340;2023-05-07T11:08:53;16.50;;;12.38;;
23300;SDS011;11819;51.394;12.340;2023-05-07T11:17:28;17.75;;;12.00;;
23300;SDS011;11819;51.394;12.340;2023-05-07T11:20:02;14.73;;;11.10;;
23300;SDS011;11819;51.394;12.340;2023-05-07T11:22:38;16.13;;;13.23;;
23300;SDS011;11819;51.394;12.340;2023-05-07T11:25:18;15.98;;;11.98;;
23300;SDS011;11819;51.394;12.340;2023-05-07T11:27:46;13.73;;;10.80;;
23300;SDS011;11819;51.394;12.340;2023-05-07T11:30:18;13.95;;;11.10;;
23300;SDS011;11819;51.394;12.340;2023-05-07T11:32:47;14.07;;;10.82;;
23300;SDS011;11819;51.394;12.340;2023-05-07T11:35:15;14.32;;;10.20;;
23300;SDS011;11819;51.394;12.340;2023-05-07T11:37:42;11.38;;;9.85;;
23300;SDS011;11819;51.394;12.340;2023-05-07T11:40:11;13.32;;;9.77;;
23300;SDS011;11819;51.394;12.340;2023-05-07T11:42:40;12.13;;;9.93;;
23300;SDS011;11819;51.394;12.340;2023-05-07T11:45:08;11.70;;;9.68;;
23300;SDS011;11819;51.394;12.340;2023-05-07T11:47:34;15.55;;;11.27;;
23300;SDS011;11819;51.394;12.340;2023-05-07T11:50:04;17.48;;;9.65;;
23300;SDS011;11819;51.394;12.340;2023-05-07T11:52:33;13.20;;;9.15;;
23300;SDS011;11819;51.394;12.340;2023-05-07T11:54:59;12.45;;;9.45;;
23300;SDS011;11819;51.394;12.340;2023-05-07T11:57:26;14.15;;;10.20;;
23300;SDS011;11819;51.394;12.340;2023-05-07T11:59:58;13.45;;;10.35;;
23300;SDS011;11819;51.394;12.340;2023-05-07T12:02:41;13.18;;;9.70;;
23300;SDS011;11819;51.394;12.340;2023-05-07T12:05:08;14.32;;;10.10;;
23300;SDS011;11819;51.394;12.340;2023-05-07T12:07:34;12.15;;;9.77;;
23300;SDS011;11819;51.394;12.340;2023-05-07T12:10:10;12.35;;;8.80;;
23300;SDS011;11819;51.394;12.340;2023-05-07T12:12:38;13.75;;;9.50;;
23300;SDS011;11819;51.394;12.340;2023-05-07T12:15:05;11.82;;;9.57;;
23300;SDS011;11819;51.394;12.340;2023-05-07T12:17:31;11.60;;;9.73;;
23300;SDS011;11819;51.394;12.340;2023-05-07T12:19:57;15.38;;;10.45;;
23300;SDS011;11819;51.394;12.340;2023-05-07T12:22:23;14.00;;;10.13;;
23300;SDS011;11819;51.394;12.340;2023-05-07T12:24:49;13.68;;;10.38;;
23300;SDS011;11819;51.394;12.340;2023-05-07T12:27:21;14.23;;;10.70;;
23300;SDS011;11819;51.394;12.340;2023-05-07T12:29:47;14.55;;;11.43;;
23300;SDS011;11819;51.394;12.340;2023-05-07T12:32:14;13.82;;;11.25;;
23300;SDS011;11819;51.394;12.340;2023-05-07T12:34:44;13.70;;;10.70;;
23300;SDS011;11819;51.394;12.340;2023-05-07T12:37:10;13.35;;;10.60;;
23300;SDS011;11819;51.394;12.340;2023-05-07T12:39:37;13.10;;;10.70;;
23300;SDS011;11819;51.394;12.340;2023-05-07T12:42:03;12.68;;;10.23;;
23300;SDS011;11819;51.394;12.340;2023-05-07T12:44:31;13.48;;;9.65;;
23300;SDS011;11819;51.394;12.340;2023-05-07T12:46:58;10.65;;;8.60;;
23300;SDS011;11819;51.394;12.340;2023-05-07T12:49:26;10.45;;;8.05;;
23300;SDS011;11819;51.394;12.340;2023-05-07T12:51:53;10.40;;;8.57;;
23300;SDS011;11819;51.394;12.340;2023-05-07T12:54:37;11.32;;;8.65;;
23300;SDS011;11819;51.394;12.340;2023-05-07T12:57:07;9.75;;;7.72;;
23300;SDS011;11819;51.394;12.340;2023-05-07T12:59:38;9.30;;;7.22;;
23300;SDS011;11819;51.394;12.340;2023-05-07T13:02:08;9.52;;;7.50;;
23300;SDS011;11819;51.394;12.340;2023-05-07T13:04:35;10.57;;;7.18;;
23300;SDS011;11819;51.394;12.340;2023-05-07T13:07:01;9.40;;;7.60;;
23300;SDS011;11819;51.394;12.340;2023-05-07T13:09:27;9.85;;;7.53;;
23300;SDS011;11819;51.394;12.340;2023-05-07T13:11:54;9.98;;;7.95;;
23300;SDS011;11819;51.394;12.340;2023-05-07T13:14:20;10.40;;;7.90;;
23300;SDS011;11819;51.394;12.340;2023-05-07T13:16:46;21.65;;;8.40;;
23300;SDS011;11819;51.394;12.340;2023-05-07T13:19:12;11.30;;;8.20;;
23300;SDS011;11819;51.394;12.340;2023-05-07T13:21:38;9.27;;;7.55;;
23300;SDS011;11819;51.394;12.340;2023-05-07T13:24:03;10.38;;;7.78;;
23300;SDS011;11819;51.394;12.340;2023-05-07T13:26:30;9.93;;;7.13;;
23300;SDS011;11819;51.394;12.340;2023-05-07T13:28:56;10.07;;;7.45;;
23300;SDS011;11819;51.394;12.340;2023-05-07T13:31:22;10.98;;;7.53;;
23300;SDS011;11819;51.394;12.340;2023-05-07T13:33:49;10.38;;;6.88;;
23300;SDS011;11819;51.394;12.340;2023-05-07T13:36:15;9.38;;;6.63;;
23300;SDS011;11819;51.394;12.340;2023-05-07T13:38:40;9.82;;;7.30;;
23300;SDS011;11819;51.394;12.340;2023-05-07T13:41:06;9.65;;;6.53;;
23300;SDS011;11819;51.394;12.340;2023-05-07T13:43:31;11.30;;;7.80;;
23300;SDS011;11819;51.394;12.340;2023-05-07T13:45:58;9.23;;;7.45;;
23300;SDS011;11819;51.394;12.340;2023-05-07T13:48:27;10.40;;;7.40;;
23300;SDS011;11819;51.394;12.340;2023-05-07T13:50:54;9.10;;;6.80;;
23300;SDS011;11819;51.394;12.340;2023-05-07T13:53:20;12.48;;;7.65;;
23300;SDS011;11819;51.394;12.340;2023-05-07T13:55:45;9.13;;;6.80;;
23300;SDS011;11819;51.394;12.340;2023-05-07T13:58:11;9.35;;;6.70;;
23300;SDS011;11819;51.394;12.340;2023-05-07T14:00:39;9.63;;;7.43;;
23300;SDS011;11819;51.394;12.340;2023-05-07T14:03:04;9.60;;;7.25;;
23300;SDS011;11819;51.394;12.340;2023-05-07T14:05:30;10.15;;;6.75;;
23300;SDS011;11819;51.394;12.340;2023-05-07T14:07:59;12.93;;;7.38;;
23300;SDS011;11819;51.394;12.340;2023-05-07T14:10:25;10.82;;;6.60;;
23300;SDS011;11819;51.394;12.340;2023-05-07T14:12:52;7.93;;;6.70;;
23300;SDS011;11819;51.394;12.340;2023-05-07T14:15:17;8.15;;;6.28;;
23300;SDS011;11819;51.394;12.340;2023-05-07T14:17:43;9.20;;;6.75;;
23300;SDS011;11819;51.394;12.340;2023-05-07T14:20:09;9.68;;;6.10;;
23300;SDS011;11819;51.394;12.340;2023-05-07T14:22:36;8.38;;;6.20;;
23300;SDS011;11819;51.394;12.340;2023-05-07T14:25:02;7.97;;;5.95;;
23300;SDS011;11819;51.394;12.340;2023-05-07T14:27:28;7.63;;;5.53;;
23300;SDS011;11819;51.394;12.340;2023-05-07T14:29:53;7.78;;;6.05;;
23300;SDS011;11819;51.394;12.340;2023-05-07T14:32:21;8.48;;;5.47;;
23300;SDS011;11819;51.394;12.340;2023-05-07T14:34:47;8.52;;;5.97;;